NFTL/HPA METAR and TAF weather

Enter ICAO airport designator
Station Type Date Time Source
NFTL METAR 2020/07/11 03:00 UTC NOAA

NFTL 110300Z 09014KT 9999 SCT017TCU BKN100 25/20 Q1013


Station Type Date Time Source
NFTL Decoded METAR 2020/07/11 03:00 UTC NOAA

Haapai, Tonga (NFTL) 19-48S 174-21W 3M
Jul 10, 2020 - 11:00 PM EDT / 2020.07.11 0300 UTC
Wind: from the E (090 degrees) at 16 MPH (14 KT):0
Visibility: greater than 7 mile(s):0
Sky conditions: mostly cloudy
Weather: Towering cumulus clouds observed
Temperature: 77 F (25 C)
Dew Point: 68 F (20 C)
Relative Humidity: 73%
Pressure (altimeter): 29.91 in. Hg (1013 hPa)
ob: NFTL 110300Z 09014KT 9999 SCT017TCU BKN100 25/20 Q1013
cycle: 3

Station Type Date Time Source
NFTL TAF 2018/02/21 17:36 UTC NOAA

TAF NFTL 211605Z 2117/2208 12010KT 9999 SCT018

Example: see airport list